createdAt,value
2018-12-30T00:02:08.526Z,7.70
2018-12-30T00:04:25.115Z,7.70
2018-12-30T00:06:41.180Z,7.70
2018-12-30T00:08:57.985Z,7.70
2018-12-30T00:11:13.840Z,7.80
2018-12-30T00:13:30.592Z,7.70
2018-12-30T00:15:46.163Z,7.70
2018-12-30T00:18:02.809Z,7.70
2018-12-30T00:20:19.154Z,7.70
2018-12-30T00:22:35.135Z,7.60
2018-12-30T00:24:50.815Z,7.50
2018-12-30T00:27:07.111Z,7.40
2018-12-30T00:29:23.739Z,7.30
2018-12-30T00:31:40.403Z,7.20
2018-12-30T00:33:56.835Z,7.10
2018-12-30T00:36:12.928Z,7.00
2018-12-30T00:38:28.686Z,7.00
2018-12-30T00:40:44.724Z,6.90
2018-12-30T00:43:01.687Z,6.90
2018-12-30T00:45:18.219Z,6.90
2018-12-30T00:47:34.510Z,6.90
2018-12-30T00:49:50.721Z,6.80
2018-12-30T00:52:06.633Z,6.80
2018-12-30T00:54:23.060Z,6.70
2018-12-30T00:56:40.152Z,6.70
2018-12-30T00:58:56.236Z,6.60
2018-12-30T01:01:12.737Z,6.60
2018-12-30T01:03:29.712Z,6.60
2018-12-30T01:05:45.505Z,6.60
2018-12-30T01:08:02.080Z,6.50
2018-12-30T01:10:18.403Z,6.50
2018-12-30T01:12:35.083Z,6.50
2018-12-30T01:14:51.175Z,6.50
2018-12-30T01:17:06.903Z,6.50
2018-12-30T01:19:23.412Z,6.50
2018-12-30T01:21:40.365Z,6.50
2018-12-30T01:23:56.303Z,6.40
2018-12-30T01:26:12.614Z,6.40
2018-12-30T01:28:29.330Z,6.40
2018-12-30T01:30:45.907Z,6.40
2018-12-30T01:33:02.841Z,6.40
2018-12-30T01:35:18.720Z,6.40
2018-12-30T01:37:35.412Z,6.40
2018-12-30T01:39:51.383Z,6.40
2018-12-30T01:42:07.827Z,6.40
2018-12-30T01:44:24.803Z,5.90
2018-12-30T01:46:40.923Z,6.40
2018-12-30T01:48:56.702Z,6.40
2018-12-30T01:51:13.667Z,6.40
2018-12-30T01:53:30.031Z,6.50
2018-12-30T01:55:46.035Z,6.50
2018-12-30T01:58:01.992Z,6.50
2018-12-30T02:00:18.677Z,6.50
2018-12-30T02:02:34.740Z,6.50
2018-12-30T02:04:50.727Z,6.50
2018-12-30T02:07:06.811Z,6.50
2018-12-30T02:09:23.182Z,6.50
2018-12-30T02:11:39.371Z,6.50
2018-12-30T02:13:55.475Z,6.50
2018-12-30T02:16:11.675Z,6.50
2018-12-30T02:18:27.744Z,6.50
2018-12-30T02:20:44.210Z,6.50
2018-12-30T02:23:00.663Z,6.50
2018-12-30T02:25:16.396Z,6.50
2018-12-30T02:27:33.335Z,6.50
2018-12-30T02:29:49.811Z,6.50
2018-12-30T02:32:05.911Z,6.50
2018-12-30T02:34:22.109Z,6.50
2018-12-30T02:36:38.695Z,6.50
2018-12-30T02:38:54.515Z,6.50
2018-12-30T02:41:10.468Z,6.50
2018-12-30T02:43:27.299Z,6.50
2018-12-30T02:45:43.507Z,6.40
2018-12-30T02:48:00.503Z,6.40
2018-12-30T02:50:16.583Z,6.40
2018-12-30T02:52:32.413Z,6.40
2018-12-30T02:54:48.550Z,5.80
2018-12-30T02:57:04.646Z,5.90
2018-12-30T02:59:20.728Z,6.40
2018-12-30T03:01:37.404Z,6.30
2018-12-30T03:03:53.288Z,6.30
2018-12-30T03:06:10.128Z,6.30
2018-12-30T03:08:26.522Z,6.30
2018-12-30T03:10:43.617Z,6.20
2018-12-30T03:13:00.228Z,6.20
2018-12-30T03:15:16.249Z,6.20
2018-12-30T03:17:33.218Z,6.20
2018-12-30T03:19:48.976Z,6.20
2018-12-30T03:22:04.907Z,6.20
2018-12-30T03:24:20.966Z,6.20
2018-12-30T03:26:36.578Z,6.20
2018-12-30T03:28:52.981Z,6.20
2018-12-30T03:31:09.168Z,6.20
2018-12-30T03:33:25.319Z,6.20
2018-12-30T03:35:41.967Z,6.20
2018-12-30T03:37:58.684Z,6.20
2018-12-30T03:40:15.299Z,6.30
2018-12-30T03:42:31.727Z,6.20
2018-12-30T03:44:47.738Z,6.30
2018-12-30T03:47:03.807Z,6.30
2018-12-30T03:49:20.601Z,6.30
2018-12-30T03:51:36.696Z,6.30
2018-12-30T03:53:51.668Z,6.30
2018-12-30T03:58:44.303Z,6.40
2018-12-30T04:01:07.754Z,6.40
2018-12-30T04:03:31.291Z,6.40
2018-12-30T04:05:54.888Z,6.40
2018-12-30T04:08:18.643Z,6.40
2018-12-30T04:10:42.143Z,6.40
2018-12-30T04:13:05.727Z,6.50
2018-12-30T04:15:29.380Z,6.50
2018-12-30T04:17:53.248Z,6.60
2018-12-30T04:20:17.326Z,6.60
2018-12-30T04:22:40.752Z,6.60
2018-12-30T04:25:04.314Z,6.60
2018-12-30T04:30:12.131Z,6.60
2018-12-30T04:32:35.560Z,6.70
2018-12-30T04:35:00.561Z,6.70
2018-12-30T04:39:53.307Z,6.80
2018-12-30T04:42:16.784Z,6.80
2018-12-30T04:44:33.480Z,6.90
2018-12-30T04:46:49.553Z,6.90
2018-12-30T04:49:05.807Z,6.90
2018-12-30T04:51:22.343Z,6.90
2018-12-30T04:53:38.561Z,6.90
2018-12-30T04:55:55.002Z,7.00
2018-12-30T04:58:11.135Z,7.00
2018-12-30T05:00:27.029Z,7.00
2018-12-30T05:05:01.551Z,6.90
2018-12-30T05:07:18.316Z,6.90
2018-12-30T05:09:34.107Z,6.90
2018-12-30T05:11:50.339Z,6.90
2018-12-30T05:14:06.509Z,6.90
2018-12-30T05:16:22.909Z,7.00
2018-12-30T05:18:38.795Z,6.90
2018-12-30T05:20:54.370Z,7.00
2018-12-30T05:23:10.219Z,7.00
2018-12-30T05:25:26.355Z,7.00
2018-12-30T05:27:42.010Z,7.00
2018-12-30T05:29:58.173Z,7.00
2018-12-30T05:32:14.313Z,7.00
2018-12-30T05:34:31.075Z,7.00
2018-12-30T05:36:47.004Z,7.00
2018-12-30T05:39:04.583Z,7.10
2018-12-30T05:41:20.737Z,7.10
2018-12-30T05:43:37.360Z,7.10
2018-12-30T05:45:53.042Z,7.10
2018-12-30T05:48:08.809Z,7.10
2018-12-30T05:50:25.147Z,7.10
2018-12-30T05:52:41.987Z,7.10
2018-12-30T05:54:58.730Z,7.10
2018-12-30T05:57:15.096Z,7.20
2018-12-30T05:59:30.645Z,7.20
2018-12-30T06:01:46.404Z,7.30
2018-12-30T06:04:02.318Z,7.30
2018-12-30T06:06:18.256Z,7.30
2018-12-30T06:08:35.039Z,7.20
2018-12-30T06:10:51.455Z,7.30
2018-12-30T06:13:07.979Z,7.30
2018-12-30T06:15:24.691Z,7.30
2018-12-30T06:17:41.572Z,7.30
2018-12-30T06:19:57.568Z,7.30
2018-12-30T06:22:14.235Z,7.20
2018-12-30T06:24:30.117Z,7.20
2018-12-30T06:26:46.845Z,7.20
2018-12-30T06:29:02.586Z,7.20
2018-12-30T06:31:18.408Z,7.20
2018-12-30T06:33:34.106Z,7.20
2018-12-30T06:35:50.608Z,7.20
2018-12-30T06:38:06.944Z,7.20
2018-12-30T06:40:23.299Z,7.20
2018-12-30T06:42:39.807Z,7.20
2018-12-30T06:44:56.625Z,7.20
2018-12-30T06:47:12.256Z,7.30
2018-12-30T06:49:28.897Z,7.20
2018-12-30T06:51:33.452Z,7.20
2018-12-30T06:53:37.630Z,7.30
2018-12-30T06:55:42.155Z,7.30
2018-12-30T06:57:47.116Z,7.30
2018-12-30T06:59:51.467Z,7.40
2018-12-30T07:01:55.539Z,7.40
2018-12-30T07:03:59.683Z,7.40
2018-12-30T07:06:05.013Z,7.40
2018-12-30T07:08:10.126Z,7.30
2018-12-30T07:10:14.058Z,7.30
2018-12-30T07:12:18.705Z,7.20
2018-12-30T07:14:22.931Z,7.20
2018-12-30T07:16:28.387Z,7.20
2018-12-30T07:18:32.710Z,7.10
2018-12-30T07:20:37.155Z,7.10
2018-12-30T07:22:41.743Z,7.10
2018-12-30T07:24:45.823Z,7.10
2018-12-30T07:26:49.933Z,7.00
2018-12-30T07:28:54.603Z,7.10
2018-12-30T07:30:59.190Z,7.00
2018-12-30T07:33:04.419Z,6.90
2018-12-30T07:35:09.326Z,7.00
2018-12-30T07:37:14.126Z,6.90
2018-12-30T07:39:18.751Z,6.90
2018-12-30T07:41:22.950Z,6.90
2018-12-30T07:43:27.141Z,7.00
2018-12-30T07:45:31.290Z,7.00
2018-12-30T07:47:36.245Z,7.00
2018-12-30T07:49:40.375Z,7.00
2018-12-30T07:51:44.253Z,7.00
2018-12-30T07:53:48.800Z,7.00
2018-12-30T07:55:53.671Z,7.10
2018-12-30T07:57:57.555Z,7.00
2018-12-30T08:00:02.155Z,7.10
2018-12-30T08:02:06.756Z,7.10
2018-12-30T08:04:11.342Z,7.10
2018-12-30T08:06:15.614Z,7.10
2018-12-30T08:08:20.886Z,7.10
2018-12-30T08:10:25.374Z,7.20
2018-12-30T08:12:29.329Z,7.20
2018-12-30T08:14:33.773Z,7.20
2018-12-30T08:16:38.867Z,7.20
2018-12-30T08:18:43.820Z,7.20
2018-12-30T08:20:48.226Z,7.30
2018-12-30T08:22:52.718Z,7.30
2018-12-30T08:24:56.863Z,7.30
2018-12-30T08:27:01.968Z,7.30
2018-12-30T08:29:06.571Z,7.30
2018-12-30T08:31:11.394Z,7.40
2018-12-30T08:33:16.117Z,7.30
2018-12-30T08:35:21.168Z,7.30
2018-12-30T08:37:25.770Z,7.40
2018-12-30T08:39:30.314Z,7.40
2018-12-30T08:41:35.287Z,7.40
2018-12-30T08:43:39.759Z,7.40
2018-12-30T08:45:44.427Z,7.50
2018-12-30T08:47:49.703Z,7.40
2018-12-30T08:49:54.171Z,7.40
2018-12-30T08:51:58.791Z,7.50
2018-12-30T08:54:03.579Z,7.40
2018-12-30T08:56:07.900Z,7.40
2018-12-30T08:58:13.131Z,7.40
2018-12-30T09:00:17.619Z,7.40
2018-12-30T09:02:22.579Z,7.40
2018-12-30T09:04:26.792Z,7.40
2018-12-30T09:06:31.504Z,7.40
2018-12-30T09:08:36.192Z,7.40
2018-12-30T09:10:40.565Z,7.50
2018-12-30T09:12:44.841Z,7.50
2018-12-30T09:14:49.115Z,7.50
2018-12-30T09:16:53.623Z,7.50
2018-12-30T09:18:58.241Z,7.50
2018-12-30T09:21:02.905Z,7.50
2018-12-30T09:23:07.470Z,7.50
2018-12-30T09:25:12.214Z,7.40
2018-12-30T09:27:18.899Z,7.40
2018-12-30T09:29:23.187Z,7.40
2018-12-30T09:31:27.773Z,7.40
2018-12-30T09:33:32.151Z,7.30
2018-12-30T09:35:37.150Z,7.30
2018-12-30T09:37:41.580Z,7.40
2018-12-30T09:39:46.023Z,7.40
2018-12-30T09:41:50.504Z,7.40
2018-12-30T09:43:58.607Z,7.40
2018-12-30T09:46:22.667Z,7.50
2018-12-30T09:48:33.585Z,7.60
2018-12-30T09:50:33.279Z,7.60
2018-12-30T09:52:37.681Z,7.60
2018-12-30T09:54:41.891Z,7.60
2018-12-30T09:56:46.751Z,7.70
2018-12-30T09:58:50.642Z,7.70
2018-12-30T10:00:55.498Z,7.80
2018-12-30T10:03:00.260Z,7.80
2018-12-30T10:05:05.372Z,7.80
2018-12-30T10:07:10.088Z,7.80
2018-12-30T10:09:14.695Z,7.90
2018-12-30T10:11:19.800Z,7.80
2018-12-30T10:13:24.472Z,7.90
2018-12-30T10:15:29.174Z,7.90
2018-12-30T10:17:34.471Z,7.90
2018-12-30T10:19:38.606Z,7.90
2018-12-30T10:21:42.983Z,7.90
2018-12-30T10:23:52.886Z,7.90
2018-12-30T10:25:53.665Z,7.90
2018-12-30T10:27:58.419Z,7.90
2018-12-30T10:30:02.635Z,7.90
2018-12-30T10:32:07.381Z,7.90
2018-12-30T10:34:11.647Z,8.00
2018-12-30T10:36:16.182Z,8.00
2018-12-30T10:38:20.704Z,8.00
2018-12-30T10:40:25.812Z,8.10
2018-12-30T10:42:30.536Z,8.10
2018-12-30T10:44:35.619Z,8.10
2018-12-30T10:46:40.619Z,8.10
2018-12-30T10:48:45.701Z,8.10
2018-12-30T10:50:50.865Z,8.10
2018-12-30T10:52:55.649Z,8.20
2018-12-30T10:55:00.389Z,8.20
2018-12-30T10:57:06.058Z,8.20
2018-12-30T10:59:10.177Z,8.20
2018-12-30T11:01:14.645Z,8.20
2018-12-30T11:03:19.255Z,8.30
2018-12-30T11:05:23.523Z,8.30
2018-12-30T11:07:28.216Z,8.30
2018-12-30T11:09:32.400Z,8.30
2018-12-30T11:11:36.919Z,8.30
2018-12-30T11:13:41.113Z,8.30
2018-12-30T11:15:45.118Z,8.30
2018-12-30T11:17:49.674Z,8.30
2018-12-30T11:19:53.821Z,8.30
2018-12-30T11:21:58.760Z,8.30
2018-12-30T11:24:08.473Z,8.30
2018-12-30T11:26:10.068Z,8.20
2018-12-30T11:28:14.370Z,8.20
2018-12-30T11:30:19.454Z,8.20
2018-12-30T11:32:24.222Z,8.20
2018-12-30T11:34:29.431Z,8.30
2018-12-30T11:36:34.345Z,8.30
2018-12-30T11:38:38.435Z,8.40
2018-12-30T11:40:43.079Z,8.40
2018-12-30T11:42:47.779Z,8.40
2018-12-30T11:44:52.017Z,8.40
2018-12-30T11:46:56.220Z,8.40
2018-12-30T11:49:00.447Z,8.40
2018-12-30T11:51:05.031Z,8.40
2018-12-30T11:53:09.903Z,8.40
2018-12-30T11:55:14.030Z,8.50
2018-12-30T11:57:18.857Z,8.50
2018-12-30T11:59:23.361Z,8.50
2018-12-30T12:01:28.622Z,8.60
2018-12-30T12:03:33.250Z,8.60
2018-12-30T12:05:38.427Z,8.60
2018-12-30T12:07:43.459Z,8.50
2018-12-30T12:09:48.760Z,8.50
2018-12-30T12:11:53.239Z,8.50
2018-12-30T12:13:57.842Z,8.50
2018-12-30T12:16:02.083Z,8.50
2018-12-30T12:18:07.485Z,8.50
2018-12-30T12:20:12.019Z,8.50
2018-12-30T12:22:16.024Z,8.50
2018-12-30T12:24:24.305Z,8.50
2018-12-30T12:26:27.136Z,8.50
2018-12-30T12:28:31.372Z,8.50
2018-12-30T12:30:36.631Z,8.50
2018-12-30T12:32:40.864Z,8.50
2018-12-30T12:34:45.603Z,8.50
2018-12-30T12:36:50.707Z,8.40
2018-12-30T12:38:55.350Z,8.40
2018-12-30T12:40:59.965Z,8.40
2018-12-30T12:43:04.119Z,8.40
2018-12-30T12:45:08.700Z,8.40
2018-12-30T12:47:15.669Z,8.40
2018-12-30T12:49:20.276Z,8.40
2018-12-30T12:51:24.645Z,8.40
2018-12-30T12:53:28.935Z,8.40
2018-12-30T12:55:33.092Z,8.50
2018-12-30T12:57:57.139Z,8.50
2018-12-30T13:00:20.387Z,8.50
2018-12-30T13:10:28.139Z,8.50
2018-12-30T13:12:51.466Z,8.50
2018-12-30T13:15:15.311Z,8.50
2018-12-30T13:17:38.831Z,8.40
2018-12-30T13:20:02.224Z,8.40
2018-12-30T13:22:25.547Z,8.50
2018-12-30T13:24:49.366Z,8.50
2018-12-30T13:27:13.191Z,8.50
2018-12-30T13:37:17.621Z,8.50
2018-12-30T13:39:33.776Z,8.50
2018-12-30T13:41:50.196Z,8.50
2018-12-30T13:44:06.107Z,8.50
2018-12-30T13:46:22.539Z,8.40
2018-12-30T13:48:38.834Z,8.40
2018-12-30T13:50:54.732Z,8.40
2018-12-30T13:53:11.164Z,8.40
2018-12-30T13:55:27.560Z,8.40
2018-12-30T13:57:43.189Z,8.40
2018-12-30T14:00:00.377Z,8.40
2018-12-30T14:02:16.952Z,8.30
2018-12-30T14:04:33.368Z,8.30
2018-12-30T14:06:48.839Z,8.30
2018-12-30T14:09:06.441Z,8.20
2018-12-30T14:11:24.675Z,8.20
2018-12-30T14:13:39.184Z,8.20
2018-12-30T14:18:31.707Z,8.10
2018-12-30T14:20:48.104Z,8.10
2018-12-30T14:23:05.036Z,8.00
2018-12-30T14:25:20.824Z,8.00
2018-12-30T14:27:37.315Z,8.00
2018-12-30T14:29:53.699Z,8.00
2018-12-30T14:32:09.064Z,8.00
2018-12-30T14:34:25.655Z,7.90
2018-12-30T14:36:41.719Z,7.90
2018-12-30T14:38:56.268Z,7.90
2018-12-30T14:41:19.367Z,7.90
2018-12-30T14:44:02.084Z,7.90
2018-12-30T14:46:33.616Z,7.90
2018-12-30T14:59:13.073Z,7.80
2018-12-30T15:01:36.379Z,7.70
2018-12-30T15:03:59.657Z,7.80
2018-12-30T15:06:22.718Z,7.80
2018-12-30T15:09:05.648Z,7.70
2018-12-30T15:11:29.701Z,7.70
2018-12-30T15:13:53.039Z,7.70
2018-12-30T15:16:16.642Z,7.70
2018-12-30T15:18:40.494Z,7.60
2018-12-30T15:23:35.716Z,7.60
2018-12-30T15:25:59.222Z,7.60
2018-12-30T15:30:56.212Z,7.50
2018-12-30T15:33:19.837Z,7.50
2018-12-30T15:38:27.561Z,7.50
2018-12-30T15:40:43.371Z,7.40
2018-12-30T15:42:59.404Z,7.40
2018-12-30T15:45:15.795Z,7.30
2018-12-30T15:47:31.551Z,7.30
2018-12-30T15:49:48.028Z,7.30
2018-12-30T15:52:04.337Z,7.20
2018-12-30T15:54:20.885Z,7.20
2018-12-30T15:56:37.316Z,7.30
2018-12-30T15:58:53.367Z,7.20
2018-12-30T16:01:09.711Z,7.20
2018-12-30T16:03:24.746Z,7.20
2018-12-30T16:05:48.267Z,7.20
2018-12-30T16:10:42.819Z,7.30
2018-12-30T16:13:06.154Z,7.10
2018-12-30T16:15:29.726Z,7.10
2018-12-30T16:17:53.091Z,7.10
2018-12-30T16:20:16.936Z,7.10
2018-12-30T16:22:33.062Z,7.00
2018-12-30T16:24:49.499Z,7.00
2018-12-30T16:27:06.354Z,7.00
2018-12-30T16:29:23.302Z,7.00
2018-12-30T16:31:39.264Z,6.90
2018-12-30T16:33:54.083Z,6.90
2018-12-30T16:36:18.127Z,6.90
2018-12-30T16:38:34.567Z,6.90
2018-12-30T16:40:50.433Z,6.30
2018-12-30T16:43:06.787Z,6.80
2018-12-30T16:45:22.344Z,6.70
2018-12-30T16:47:42.071Z,6.80
2018-12-30T16:49:57.126Z,6.30
2018-12-30T16:52:13.806Z,6.80
2018-12-30T16:54:30.050Z,6.80
2018-12-30T16:56:46.164Z,6.70
2018-12-30T16:59:03.278Z,6.60
2018-12-30T17:01:18.995Z,6.60
2018-12-30T17:03:35.283Z,6.60
2018-12-30T17:05:51.938Z,6.60
2018-12-30T17:08:07.779Z,6.60
2018-12-30T17:10:24.472Z,6.50
2018-12-30T17:12:40.429Z,6.50
2018-12-30T17:14:57.134Z,6.50
2018-12-30T17:17:13.425Z,6.50
2018-12-30T17:19:29.884Z,6.40
2018-12-30T17:21:46.087Z,6.50
2018-12-30T17:24:02.179Z,6.50
2018-12-30T17:26:18.159Z,6.50
2018-12-30T17:28:34.343Z,6.50
2018-12-30T17:30:50.336Z,6.50
2018-12-30T17:33:06.646Z,6.50
2018-12-30T17:35:22.705Z,6.40
2018-12-30T17:37:38.433Z,6.40
2018-12-30T17:39:54.391Z,6.40
2018-12-30T17:42:10.000Z,6.40
2018-12-30T17:44:25.907Z,6.40
2018-12-30T17:46:41.724Z,6.40
2018-12-30T17:48:58.708Z,6.40
2018-12-30T17:51:14.900Z,6.40
2018-12-30T17:53:31.588Z,6.40
2018-12-30T17:55:50.858Z,6.50
2018-12-30T17:58:06.279Z,6.40
2018-12-30T18:00:22.318Z,6.40
2018-12-30T18:02:39.326Z,6.50
2018-12-30T18:04:55.549Z,6.40
2018-12-30T18:07:11.656Z,6.50
2018-12-30T18:09:28.314Z,6.50
2018-12-30T18:11:44.168Z,6.50
2018-12-30T18:13:58.646Z,6.60
2018-12-30T18:16:23.042Z,6.60
2018-12-30T18:18:46.706Z,6.50
2018-12-30T18:21:10.206Z,6.60
2018-12-30T18:23:33.433Z,6.60
2018-12-30T18:25:58.785Z,6.30
2018-12-30T18:28:21.487Z,6.60
2018-12-30T18:33:06.523Z,6.60
2018-12-30T18:35:23.220Z,6.60
2018-12-30T18:37:40.392Z,6.60
2018-12-30T18:39:56.575Z,6.60
2018-12-30T18:42:12.962Z,6.60
2018-12-30T18:44:29.450Z,6.60
2018-12-30T18:46:45.664Z,6.60
2018-12-30T18:49:01.359Z,6.60
2018-12-30T18:51:18.689Z,6.60
2018-12-30T18:53:34.870Z,6.70
2018-12-30T18:55:50.772Z,6.70
2018-12-30T18:58:06.894Z,6.70
2018-12-30T19:00:22.746Z,6.70
2018-12-30T19:02:38.903Z,6.60
2018-12-30T19:04:54.563Z,6.60
2018-12-30T19:07:10.806Z,6.70
2018-12-30T19:09:26.842Z,6.70
2018-12-30T19:11:43.545Z,6.70
2018-12-30T19:13:59.670Z,6.80
2018-12-30T19:16:14.151Z,6.80
2018-12-30T19:21:06.803Z,6.80
2018-12-30T19:23:31.176Z,6.80
2018-12-30T19:28:23.629Z,6.80
2018-12-30T19:30:46.876Z,6.80
2018-12-30T19:35:40.081Z,6.80
2018-12-30T19:38:03.296Z,6.90
2018-12-30T19:40:26.366Z,6.90
2018-12-30T19:42:42.700Z,6.90
2018-12-30T19:44:59.340Z,6.90
2018-12-30T19:47:15.339Z,6.90
2018-12-30T19:49:31.765Z,6.90
2018-12-30T19:51:48.487Z,6.90
2018-12-30T19:54:04.296Z,6.90
2018-12-30T19:56:21.983Z,7.00
2018-12-30T19:58:38.636Z,7.00
2018-12-30T20:00:54.672Z,7.00
2018-12-30T20:03:10.676Z,7.00
2018-12-30T20:05:26.703Z,7.00
2018-12-30T20:07:43.160Z,7.00
2018-12-30T20:09:59.163Z,7.10
2018-12-30T20:12:15.024Z,7.10
2018-12-30T20:14:31.923Z,7.10
2018-12-30T20:16:48.304Z,7.10
2018-12-30T20:19:04.863Z,7.10
2018-12-30T20:21:22.443Z,7.10
2018-12-30T20:23:39.088Z,7.10
2018-12-30T20:25:55.080Z,7.10
2018-12-30T20:28:11.001Z,7.00
2018-12-30T20:30:26.848Z,7.10
2018-12-30T20:32:42.907Z,7.10
2018-12-30T20:34:58.728Z,7.00
2018-12-30T20:37:14.826Z,7.00
2018-12-30T20:39:31.368Z,7.00
2018-12-30T20:41:47.251Z,7.00
2018-12-30T20:44:03.748Z,6.90
2018-12-30T20:46:19.783Z,6.90
2018-12-30T20:48:36.316Z,6.90
2018-12-30T20:50:52.824Z,6.90
2018-12-30T20:53:09.956Z,6.90
2018-12-30T20:55:26.182Z,6.90
2018-12-30T20:57:42.191Z,6.90
2018-12-30T20:59:58.261Z,6.90
2018-12-30T21:02:14.429Z,7.00
2018-12-30T21:04:30.943Z,7.00
2018-12-30T21:06:46.386Z,6.90
2018-12-30T21:09:02.512Z,7.00
2018-12-30T21:11:19.139Z,7.00
2018-12-30T21:13:36.127Z,7.00
2018-12-30T21:15:52.802Z,6.90
2018-12-30T21:18:10.294Z,6.90
2018-12-30T21:20:26.983Z,6.90
2018-12-30T21:22:43.120Z,6.90
2018-12-30T21:25:00.240Z,6.90
2018-12-30T21:27:16.212Z,6.80
2018-12-30T21:29:31.880Z,6.80
2018-12-30T21:31:48.864Z,6.80
2018-12-30T21:34:05.344Z,6.80
2018-12-30T21:36:21.700Z,6.80
2018-12-30T21:38:37.244Z,6.80
2018-12-30T21:40:53.423Z,6.80
2018-12-30T21:43:09.564Z,6.70
2018-12-30T21:45:26.227Z,6.70
2018-12-30T21:47:41.648Z,6.70
2018-12-30T21:49:57.672Z,6.70
2018-12-30T21:52:13.891Z,6.70
2018-12-30T21:54:30.190Z,6.70
2018-12-30T21:56:54.577Z,6.70
2018-12-30T21:59:04.801Z,6.70
2018-12-30T22:01:21.710Z,6.70
2018-12-30T22:03:37.851Z,6.70
2018-12-30T22:05:53.675Z,6.70
2018-12-30T22:08:09.794Z,6.70
2018-12-30T22:10:25.588Z,6.70
2018-12-30T22:12:41.288Z,6.60
2018-12-30T22:14:57.752Z,6.40
2018-12-30T22:17:14.395Z,6.60
2018-12-30T22:19:30.244Z,6.60
2018-12-30T22:21:46.801Z,6.60
2018-12-30T22:24:02.531Z,6.60
2018-12-30T22:26:18.227Z,6.60
2018-12-30T22:28:34.381Z,6.50
2018-12-30T22:30:51.343Z,6.50
2018-12-30T22:33:07.711Z,6.50
2018-12-30T22:35:23.604Z,6.50
2018-12-30T22:37:39.922Z,6.50
2018-12-30T22:39:56.098Z,6.50
2018-12-30T22:42:12.929Z,6.60
2018-12-30T22:44:29.507Z,6.60
2018-12-30T22:46:45.543Z,6.50
2018-12-30T22:49:01.151Z,6.50
2018-12-30T22:51:17.509Z,6.60
2018-12-30T22:53:33.523Z,6.60
2018-12-30T22:55:49.448Z,6.70
2018-12-30T22:58:05.756Z,6.60
2018-12-30T23:00:41.317Z,6.60
2018-12-30T23:02:57.811Z,6.60
2018-12-30T23:05:14.264Z,6.60
2018-12-30T23:07:30.259Z,6.60
2018-12-30T23:09:46.963Z,6.60
2018-12-30T23:12:03.049Z,6.60
2018-12-30T23:14:19.109Z,6.60
2018-12-30T23:16:35.251Z,6.50
2018-12-30T23:18:51.327Z,6.60
2018-12-30T23:21:07.531Z,6.60
2018-12-30T23:23:23.812Z,6.60
2018-12-30T23:25:40.075Z,6.60
2018-12-30T23:27:56.257Z,6.60
2018-12-30T23:30:12.911Z,6.60
2018-12-30T23:32:28.591Z,6.60
2018-12-30T23:34:45.007Z,6.60
2018-12-30T23:37:01.302Z,6.60
2018-12-30T23:39:16.864Z,6.60
2018-12-30T23:41:33.435Z,6.60
2018-12-30T23:43:49.262Z,6.60
2018-12-30T23:46:05.467Z,6.60
2018-12-30T23:48:21.924Z,6.60
2018-12-30T23:50:37.713Z,6.60
2018-12-30T23:52:54.156Z,6.60
2018-12-30T23:55:10.769Z,6.60
2018-12-30T23:57:26.385Z,6.70
2018-12-30T23:59:42.097Z,6.70
